Date,TemperatureHighF,TemperatureAvgF,TemperatureLowF,DewpointHighF,DewpointAvgF,DewpointLowF,HumidityHigh,HumidityAvg,HumidityLow,PressureMaxIn,PressureMinIn,WindSpeedMaxMPH,WindSpeedAvgMPH,GustSpeedMaxMPH,PrecipitationSumIn
2013-3-1,35,33,31,31,29,28,92,87,80,29.64,29.50,2,1,11,0.01
2013-3-2,42,34,30,33,30,28,93,86,63,29.62,29.56,6,0,12,0.12
2013-3-3,43,36,32,34,31,28,93,82,68,29.58,29.49,2,0,9,0.12
2013-3-4,34,32,30,29,26,24,85,79,72,29.63,29.47,6,1,11,0.02
2013-3-5,44,38,31,33,31,27,87,79,64,30.07,29.65,4,1,12,0.01
2013-3-6,38,35,32,32,29,26,91,79,67,30.22,30.09,9,2,19,0.01
2013-3-7,36,34,32,26,25,24,77,69,63,30.17,30.05,7,2,16,0.00
2013-3-8,45,36,29,26,24,22,86,62,42,30.16,30.00,9,3,20,0.05
2013-3-9,47,36,28,26,24,22,83,62,38,30.34,30.16,4,1,16,0.00
2013-3-10,41,32,23,30,26,20,89,77,62,30.40,30.29,3,1,11,0.00
2013-3-11,41,39,36,38,34,30,90,84,79,30.29,30.13,7,3,19,0.00
2013-3-12,50,45,41,47,42,38,93,89,82,30.14,29.72,15,4,25,0.67
2013-3-13,50,43,30,47,38,26,94,82,62,29.71,29.63,5,1,22,0.04
2013-3-14,42,31,23,29,23,11,92,72,45,29.71,29.58,6,1,15,0.00
2013-3-15,36,26,17,19,11,5,79,54,33,29.77,29.57,4,1,13,0.00
2013-3-16,37,30,23,22,15,12,85,56,36,29.84,29.59,3,1,11,0.00
2013-3-17,34,25,16,15,8,1,84,51,32,30.27,29.87,6,1,17,0.00
2013-3-18,37,25,11,19,8,2,70,52,26,30.40,30.26,3,1,15,0.00
2013-3-19,31,28,23,28,24,19,91,85,64,30.25,29.64,8,2,20,0.01
2013-3-20,33,28,20,28,24,18,90,84,75,29.69,29.58,5,1,11,0.39
2013-3-21,38,30,23,23,20,17,87,66,43,29.73,29.58,3,1,12,0.26
2013-3-22,39,29,20,22,19,16,90,66,44,29.62,29.55,4,1,10,0.03
2013-3-23,42,32,22,24,20,15,81,64,44,29.62,29.46,6,2,18,0.00
2013-3-24,48,36,25,27,24,21,84,64,41,29.75,29.62,6,1,16,0.00
2013-3-25,44,35,25,31,26,22,89,73,56,29.74,29.56,6,1,14,0.00
2013-3-26,49,39,31,27,26,23,74,59,39,29.69,29.52,5,1,15,0.00
2013-3-27,48,35,27,37,28,22,92,76,50,29.83,29.68,3,0,12,0.15
2013-3-28,50,40,33,37,33,30,93,77,48,29.93,29.83,2,0,7,0.01
2013-3-29,57,43,31,38,32,27,91,67,40,29.98,29.91,3,0,13,0.00
2013-3-30,57,41,29,32,27,20,87,63,25,30.05,29.94,3,1,12,0.00
2013-3-31,51,40,24,37,27,20,85,63,32,30.09,29.86,7,2,18,0.00